Midway, Florida
Current Conditions -  °F | °C
As of 3:35 AM on Thursday 18 Dec 2014 (Local Time) from K2J9 Reporting Station
Few Clouds Few Clouds  
Wind Chill: 38°   Ceiling: Unl
Heat Index: 41°   Visibility: 9mi
Dew Point: 39°   Wind: 5mph
Humidity: 93%   Direction: 350°N
Pressure: 30.18"   Gusts: NA
Location:  30.5°N, 84.45°W
Report Text: K2J9 180835Z AUTO 35004KT 9SM FEW013 05/04 A3018 RMK AO1
Loading
Personal Weather Stations






























Interactive Weather Map New forecast layout! Learn more

10-Day Weather Forecast

Advertisements
Track Severe Weather on mobile